createdAt,value
2023-01-12T00:02:48.439Z,98927.63
2023-01-12T00:06:08.011Z,98935.33
2023-01-12T00:09:20.299Z,98939.46
2023-01-12T00:12:32.515Z,98943.94
2023-01-12T00:15:55.493Z,98946.19
2023-01-12T00:19:09.520Z,98940.19
2023-01-12T00:22:21.975Z,98945.31
2023-01-12T00:25:34.131Z,98939.51
2023-01-12T00:28:46.633Z,98946.27
2023-01-12T00:32:00.760Z,98956.09
2023-01-12T00:35:15.172Z,98956.22
2023-01-12T00:38:29.749Z,98959.29
2023-01-12T00:41:57.069Z,98958.89
2023-01-12T00:45:30.149Z,98966.11
2023-01-12T00:48:42.354Z,98971.18
2023-01-12T00:51:54.768Z,98960.36
2023-01-12T00:55:07.192Z,98975.94
2023-01-12T00:58:19.391Z,98971.02
2023-01-12T01:01:31.901Z,98981.25
2023-01-12T01:04:44.494Z,98973.75
2023-01-12T01:07:56.779Z,98982.84
2023-01-12T01:11:15.434Z,98975.81
2023-01-12T01:14:27.774Z,98983.41
2023-01-12T01:17:40.108Z,98987.70
2023-01-12T01:20:55.507Z,98993.81
2023-01-12T01:24:08.253Z,98974.13
2023-01-12T01:27:20.462Z,98982.69
2023-01-12T01:30:32.685Z,98980.67
2023-01-12T01:33:45.496Z,98980.38
2023-01-12T01:36:59.287Z,98977.18
2023-01-12T01:40:13.865Z,98978.27
2023-01-12T01:43:29.366Z,98977.95
2023-01-12T01:46:48.595Z,98968.17
2023-01-12T01:50:04.207Z,98969.95
2023-01-12T01:53:21.117Z,98964.80
2023-01-12T01:56:37.362Z,98959.43
2023-01-12T01:59:53.818Z,98960.39
2023-01-12T02:03:09.463Z,98958.61
2023-01-12T02:06:24.986Z,98967.03
2023-01-12T02:09:37.548Z,98968.92
2023-01-12T02:13:04.671Z,98975.02
2023-01-12T02:16:25.856Z,98975.21
2023-01-12T02:20:19.431Z,98985.09
2023-01-12T02:24:06.363Z,98977.53
2023-01-12T02:28:05.309Z,98974.80
2023-01-12T02:31:46.860Z,98983.53
2023-01-12T02:35:06.781Z,98987.19
2023-01-12T02:38:24.929Z,98993.30
2023-01-12T02:41:56.829Z,99001.94
2023-01-12T02:45:21.234Z,99000.88
2023-01-12T02:48:39.297Z,98995.83
2023-01-12T02:51:56.640Z,98993.48
2023-01-12T02:55:11.580Z,98987.38
2023-01-12T02:58:28.104Z,99001.13
2023-01-12T03:01:42.718Z,99007.91
2023-01-12T03:04:55.596Z,98995.44
2023-01-12T03:08:10.234Z,98990.40
2023-01-12T03:11:25.267Z,98992.38
2023-01-12T03:14:40.060Z,99004.46
2023-01-12T03:17:56.924Z,98997.53
2023-01-12T03:21:16.097Z,98997.53
2023-01-12T03:24:33.232Z,98996.22
2023-01-12T03:27:49.063Z,99003.35
2023-01-12T03:31:05.759Z,99007.58
2023-01-12T03:34:18.383Z,99003.35
2023-01-12T03:37:35.725Z,99005.05
2023-01-12T03:40:53.302Z,99004.84
2023-01-12T03:44:12.842Z,99009.92
2023-01-12T03:47:29.841Z,99012.55
2023-01-12T03:50:48.719Z,99002.04
2023-01-12T03:54:04.522Z,99002.97
2023-01-12T03:57:20.031Z,99009.33
2023-01-12T04:00:36.796Z,99015.44
2023-01-12T04:03:49.148Z,99009.16
2023-01-12T04:07:01.909Z,99013.38
2023-01-12T04:10:16.534Z,99020.09
2023-01-12T04:13:28.795Z,99024.22
2023-01-12T04:16:41.016Z,99020.17
2023-01-12T04:19:53.259Z,99017.36
2023-01-12T04:23:05.446Z,99010.97
2023-01-12T04:26:20.509Z,99013.48
2023-01-12T04:29:32.958Z,99016.75
2023-01-12T04:32:45.215Z,99012.03
2023-01-12T04:35:57.041Z,99012.19
2023-01-12T04:39:09.757Z,99010.76
2023-01-12T04:42:36.447Z,99011.39
2023-01-12T04:45:48.851Z,99008.25
2023-01-12T04:49:01.015Z,99007.95
2023-01-12T04:52:13.049Z,99009.44
2023-01-12T04:55:25.272Z,99015.33
2023-01-12T04:58:37.344Z,99017.86
2023-01-12T05:01:49.694Z,99011.55
2023-01-12T05:05:01.930Z,99009.77
2023-01-12T05:08:30.154Z,99015.78
2023-01-12T05:11:42.521Z,99014.70
2023-01-12T05:14:57.936Z,99011.14
2023-01-12T05:18:10.293Z,99004.10
2023-01-12T05:21:23.640Z,99005.77
2023-01-12T05:24:35.536Z,99011.99
2023-01-12T05:27:47.742Z,99017.26
2023-01-12T05:31:00.012Z,99016.41
2023-01-12T05:34:11.945Z,99014.81
2023-01-12T05:37:24.204Z,99020.48
2023-01-12T05:40:36.133Z,99013.55
2023-01-12T05:43:55.059Z,99009.22
2023-01-12T05:47:07.273Z,99005.00
2023-01-12T05:50:19.960Z,99006.80
2023-01-12T05:53:34.750Z,99018.15
2023-01-12T05:56:49.727Z,99025.30
2023-01-12T06:00:01.225Z,99026.90
2023-01-12T06:03:13.633Z,99041.02
2023-01-12T06:06:27.947Z,99048.17
2023-01-12T06:09:40.155Z,99035.94
2023-01-12T06:13:09.640Z,99045.31
2023-01-12T06:16:21.970Z,99040.80
2023-01-12T06:19:34.638Z,99043.42
2023-01-12T06:22:46.520Z,99047.84
2023-01-12T06:25:58.426Z,99055.73
2023-01-12T06:29:10.889Z,99057.73
2023-01-12T06:32:22.726Z,99061.11
2023-01-12T06:35:35.012Z,99062.14
2023-01-12T06:38:47.320Z,99070.89
2023-01-12T06:42:13.891Z,99067.33
2023-01-12T06:45:26.231Z,99067.33
2023-01-12T06:48:39.217Z,99069.86
2023-01-12T06:51:53.240Z,99081.02
2023-01-12T06:55:05.063Z,99083.54
2023-01-12T06:58:16.859Z,99090.51
2023-01-12T07:01:29.072Z,99100.30
2023-01-12T07:04:41.073Z,99101.33
2023-01-12T07:07:53.514Z,99087.24
2023-01-12T07:11:08.466Z,99089.55
2023-01-12T07:14:20.266Z,99086.52
2023-01-12T07:17:32.479Z,99094.34
2023-01-12T07:20:45.661Z,99099.27
2023-01-12T07:23:57.762Z,99099.83
2023-01-12T07:27:10.290Z,99105.84
2023-01-12T07:30:23.156Z,99109.52
2023-01-12T07:33:37.489Z,99105.63
2023-01-12T07:36:50.066Z,99113.97
2023-01-12T07:43:09.468Z,99068.64
2023-01-12T07:46:22.411Z,99103.44
2023-01-12T07:49:35.164Z,99062.94
2023-01-12T07:52:47.736Z,99101.73
2023-01-12T07:56:02.167Z,99104.48
2023-01-12T08:02:19.643Z,99112.41
2023-01-12T08:05:33.745Z,99070.66
2023-01-12T08:08:46.380Z,99067.17
2023-01-12T08:11:58.680Z,99089.97
2023-01-12T08:15:13.198Z,99124.36
2023-01-12T08:18:30.243Z,99124.88
2023-01-12T08:24:47.539Z,99123.72
2023-01-12T08:28:02.283Z,99118.56
2023-01-12T08:34:17.133Z,99127.64
2023-01-12T08:37:31.660Z,99133.20
2023-01-12T08:40:59.784Z,99129.26
2023-01-12T08:44:15.373Z,99134.22
2023-01-12T08:47:31.817Z,99130.31
2023-01-12T08:50:44.176Z,99134.11
2023-01-12T08:56:58.906Z,99099.17
2023-01-12T09:00:14.711Z,99090.02
2023-01-12T09:03:26.921Z,99127.45
2023-01-12T09:06:42.378Z,99108.80
2023-01-12T09:09:54.377Z,99119.01
2023-01-12T09:13:07.433Z,99116.80
2023-01-12T09:16:23.234Z,99111.09
2023-01-12T09:19:36.011Z,99120.16
2023-01-12T09:22:48.593Z,99117.05
2023-01-12T09:26:05.625Z,99116.12
2023-01-12T09:29:19.677Z,99094.16
2023-01-12T09:32:36.897Z,99105.72
2023-01-12T09:35:47.865Z,99099.19
2023-01-12T09:39:01.637Z,99052.60
2023-01-12T09:42:43.948Z,99091.54
2023-01-12T09:45:51.560Z,99083.48
2023-01-12T09:49:04.288Z,99072.00
2023-01-12T09:52:22.759Z,99064.11
2023-01-12T09:55:40.023Z,99047.25
2023-01-12T09:59:13.828Z,99055.09
2023-01-12T10:02:26.089Z,99040.20
2023-01-12T10:05:47.243Z,99043.52
2023-01-12T10:09:01.937Z,99046.03
2023-01-12T10:12:24.215Z,99041.91
2023-01-12T10:15:47.235Z,99028.52
2023-01-12T10:19:03.681Z,99030.78
2023-01-12T10:22:27.924Z,99031.03
2023-01-12T10:25:44.468Z,99033.30
2023-01-12T10:29:02.383Z,99033.21
2023-01-12T10:32:17.370Z,99027.98
2023-01-12T10:35:31.229Z,99021.20
2023-01-12T10:38:47.729Z,99018.16
2023-01-12T10:42:40.460Z,99024.23
2023-01-12T10:46:08.432Z,99021.08
2023-01-12T10:49:28.734Z,99018.70
2023-01-12T10:52:44.881Z,99020.82
2023-01-12T10:55:57.324Z,99021.38
2023-01-12T10:59:19.591Z,98994.83
2023-01-12T11:02:36.392Z,98996.40
2023-01-12T11:05:47.037Z,99000.72
2023-01-12T11:08:59.405Z,98994.29
2023-01-12T11:12:24.392Z,98991.80
2023-01-12T11:15:40.006Z,98990.14
2023-01-12T11:18:57.731Z,98979.92
2023-01-12T11:22:17.030Z,98979.52
2023-01-12T11:25:32.578Z,98968.62
2023-01-12T11:28:49.546Z,98968.19
2023-01-12T11:32:08.446Z,98966.09
2023-01-12T11:35:35.388Z,98971.55
2023-01-12T11:38:52.429Z,98956.02
2023-01-12T11:42:23.502Z,98956.58
2023-01-12T11:45:42.266Z,98961.03
2023-01-12T11:49:08.048Z,98951.27
2023-01-12T11:52:24.288Z,98950.41
2023-01-12T11:55:53.557Z,98954.47
2023-01-12T11:59:12.306Z,98950.65
2023-01-12T12:02:38.328Z,98940.72
2023-01-12T12:05:56.417Z,98955.38
2023-01-12T12:09:30.722Z,98948.97
2023-01-12T12:12:51.715Z,98938.91
2023-01-12T12:16:22.965Z,98939.33
2023-01-12T12:19:44.840Z,98929.26
2023-01-12T12:23:10.036Z,98942.33
2023-01-12T12:26:27.934Z,98942.48
2023-01-12T12:29:53.885Z,98933.11
2023-01-12T12:33:12.398Z,98925.41
2023-01-12T12:36:31.123Z,98925.13
2023-01-12T12:39:59.728Z,98930.55
2023-01-12T12:43:31.346Z,98933.47
2023-01-12T12:46:49.808Z,98938.13
2023-01-12T12:50:04.836Z,98919.69
2023-01-12T12:53:28.298Z,98931.13
2023-01-12T12:56:42.157Z,98921.05
2023-01-12T13:00:04.241Z,98922.75
2023-01-12T13:03:17.010Z,98920.20
2023-01-12T13:06:32.332Z,98925.52
2023-01-12T13:09:51.852Z,98921.34
2023-01-12T13:13:36.529Z,98923.99
2023-01-12T13:16:56.209Z,98931.36
2023-01-12T13:20:41.711Z,98926.75
2023-01-12T13:23:58.776Z,98916.64
2023-01-12T13:27:35.035Z,98910.63
2023-01-12T13:30:59.204Z,98911.17
2023-01-12T13:34:47.113Z,98919.26
2023-01-12T13:38:04.964Z,98912.26
2023-01-12T13:41:43.527Z,98908.48
2023-01-12T13:44:57.128Z,98902.19
2023-01-12T13:48:11.592Z,98911.84
2023-01-12T13:51:28.461Z,98912.80
2023-01-12T13:54:43.346Z,98919.06
2023-01-12T13:58:07.940Z,98907.16
2023-01-12T14:01:27.179Z,98909.95
2023-01-12T14:05:07.188Z,98894.28
2023-01-12T14:08:51.086Z,98905.70
2023-01-12T14:12:22.667Z,98894.11
2023-01-12T14:15:57.279Z,98884.70
2023-01-12T14:19:31.227Z,98892.06
2023-01-12T14:22:43.640Z,98882.08
2023-01-12T14:26:21.657Z,98885.63
2023-01-12T14:29:33.462Z,98878.62
2023-01-12T14:32:48.335Z,98882.88
2023-01-12T14:36:05.723Z,98881.59
2023-01-12T15:03:57.546Z,98870.30
2023-01-12T15:41:25.798Z,98894.89
2023-01-12T15:44:39.605Z,98893.45
2023-01-12T15:47:52.916Z,98890.68
2023-01-12T15:51:05.101Z,98898.69
2023-01-12T15:54:19.982Z,98891.11
2023-01-12T16:37:45.491Z,98895.67
2023-01-12T16:53:18.313Z,98892.75
2023-01-12T16:56:33.558Z,98895.59
2023-01-12T16:59:46.066Z,98880.74
2023-01-12T17:02:58.166Z,98885.38
2023-01-12T17:06:15.847Z,98879.48
2023-01-12T17:12:28.051Z,98887.39
2023-01-12T17:15:41.209Z,98892.67
2023-01-12T17:21:55.008Z,98871.09
2023-01-12T17:25:07.427Z,98868.63
2023-01-12T17:28:19.289Z,98875.19
2023-01-12T17:31:31.763Z,98871.38
2023-01-12T17:34:48.176Z,98873.16
2023-01-12T17:38:00.294Z,98857.71
2023-01-12T17:41:20.264Z,98869.68
2023-01-12T17:44:32.417Z,98859.14
2023-01-12T17:47:47.599Z,98862.74
2023-01-12T17:50:59.604Z,98858.44
2023-01-12T17:54:16.831Z,98855.69
2023-01-12T17:57:29.953Z,98856.50
2023-01-12T18:00:42.391Z,98857.47
2023-01-12T18:03:54.864Z,98857.71
2023-01-12T18:07:07.100Z,98859.81
2023-01-12T18:10:20.839Z,98842.98
2023-01-12T18:13:33.090Z,98849.39
2023-01-12T18:16:45.324Z,98853.81
2023-01-12T18:19:58.790Z,98855.72
2023-01-12T18:23:10.786Z,98846.15
2023-01-12T18:26:27.166Z,98848.05
2023-01-12T18:29:39.778Z,98844.69
2023-01-12T18:32:51.847Z,98828.88
2023-01-12T18:36:04.120Z,98827.42
2023-01-12T18:39:20.626Z,98829.94
2023-01-12T18:42:47.408Z,98822.15
2023-01-12T18:45:59.398Z,98820.25
2023-01-12T18:49:11.384Z,98808.42
2023-01-12T18:52:44.122Z,98803.15
2023-01-12T18:55:57.407Z,98809.27
2023-01-12T18:59:09.750Z,98811.98
2023-01-12T19:02:24.012Z,98819.80
2023-01-12T19:05:41.581Z,98805.05
2023-01-12T19:09:08.758Z,98808.73
2023-01-12T19:12:20.714Z,98808.42
2023-01-12T19:15:47.284Z,98803.55
2023-01-12T19:18:59.467Z,98801.28
2023-01-12T19:22:25.973Z,98803.10
2023-01-12T19:25:52.203Z,98787.05
2023-01-12T19:29:04.121Z,98787.30
2023-01-12T19:32:16.420Z,98793.17
2023-01-12T19:35:28.391Z,98791.47
2023-01-12T19:38:43.101Z,98792.11
2023-01-12T19:42:09.904Z,98800.11
2023-01-12T19:45:22.783Z,98798.53
2023-01-12T19:48:35.975Z,98800.67
2023-01-12T19:51:50.815Z,98790.38
2023-01-12T19:55:03.142Z,98787.73
2023-01-12T19:58:16.425Z,98787.73
2023-01-12T20:01:30.834Z,98789.08
2023-01-12T20:04:43.515Z,98786.20
2023-01-12T20:07:57.917Z,98780.52
2023-01-12T20:11:11.216Z,98785.94
2023-01-12T20:14:23.572Z,98787.06
2023-01-12T20:55:21.209Z,98767.63
2023-01-12T20:58:33.656Z,98765.36
2023-01-12T21:01:49.013Z,98773.16
2023-01-12T21:17:12.469Z,98770.77
2023-01-12T21:38:49.466Z,98770.05
2023-01-12T21:42:15.867Z,98778.94
2023-01-12T21:45:27.767Z,98775.57
2023-01-12T21:48:40.101Z,98777.23
2023-01-12T21:51:52.145Z,98771.96
2023-01-12T21:55:04.077Z,98769.58
2023-01-12T21:58:16.290Z,98769.07
2023-01-12T22:01:28.387Z,98770.52
2023-01-12T22:04:40.644Z,98763.67
2023-01-12T22:07:54.805Z,98763.19
2023-01-12T22:29:37.074Z,98753.44
2023-01-12T22:32:49.433Z,98752.93
2023-01-12T22:36:01.299Z,98747.66
2023-01-12T22:39:13.436Z,98740.94
2023-01-12T22:42:27.998Z,98743.94
2023-01-12T22:45:41.254Z,98743.22
2023-01-12T22:48:55.891Z,98737.43
2023-01-12T22:52:10.002Z,98736.83
2023-01-12T22:55:22.332Z,98728.32
2023-01-12T22:58:34.727Z,98735.50
2023-01-12T23:01:46.574Z,98720.63
2023-01-12T23:04:58.675Z,98726.87
2023-01-12T23:32:43.522Z,98725.84
2023-01-12T23:41:55.959Z,98716.33
